sensor_id;sensor_type;location;lat;lon;timestamp;pressure;altitude;pressure_sealevel;temperature;humidity
67099;BME280;54288;53.046;5.668;2022-09-09T00:09:18;100894.44;;;14.99;97.33
67099;BME280;54288;53.046;5.668;2022-09-09T00:15:12;100878.06;;;14.89;97.83
67099;BME280;54288;53.046;5.668;2022-09-09T00:20:16;100882.75;;;14.83;97.54
67099;BME280;54288;53.046;5.668;2022-09-09T00:22:57;100883.72;;;14.80;97.96
67099;BME280;54288;53.046;5.668;2022-09-09T00:25:35;100877.47;;;14.83;97.90
67099;BME280;54288;53.046;5.668;2022-09-09T00:28:16;100883.53;;;14.85;97.53
67099;BME280;54288;53.046;5.668;2022-09-09T00:30:44;100873.22;;;14.79;97.79
67099;BME280;54288;53.046;5.668;2022-09-09T00:33:16;100885.69;;;14.74;98.03
67099;BME280;54288;53.046;5.668;2022-09-09T00:36:00;100878.53;;;14.77;98.26
67099;BME280;54288;53.046;5.668;2022-09-09T00:38:37;100864.84;;;14.68;97.92
67099;BME280;54288;53.046;5.668;2022-09-09T00:43:40;100875.97;;;14.76;98.05
67099;BME280;54288;53.046;5.668;2022-09-09T00:54:45;100880.78;;;14.88;97.76
67099;BME280;54288;53.046;5.668;2022-09-09T00:57:25;100874.78;;;14.84;97.79
67099;BME280;54288;53.046;5.668;2022-09-09T01:00:15;100872.28;;;14.80;98.38
67099;BME280;54288;53.046;5.668;2022-09-09T01:26:28;100864.00;;;14.90;98.96
67099;BME280;54288;53.046;5.668;2022-09-09T01:28:59;100862.34;;;14.88;99.32
67099;BME280;54288;53.046;5.668;2022-09-09T01:31:38;100853.56;;;14.87;99.31
67099;BME280;54288;53.046;5.668;2022-09-09T01:34:11;100870.03;;;14.94;99.07
67099;BME280;54288;53.046;5.668;2022-09-09T01:36:44;100870.03;;;14.94;99.13
67099;BME280;54288;53.046;5.668;2022-09-09T01:39:12;100855.16;;;14.91;99.59
67099;BME280;54288;53.046;5.668;2022-09-09T01:41:39;100861.19;;;14.95;99.58
67099;BME280;54288;53.046;5.668;2022-09-09T01:44:10;100859.47;;;14.94;99.99
67099;BME280;54288;53.046;5.668;2022-09-09T01:46:38;100849.91;;;14.91;99.78
67099;BME280;54288;53.046;5.668;2022-09-09T01:49:08;100854.25;;;14.92;99.88
67099;BME280;54288;53.046;5.668;2022-09-09T01:51:38;100847.31;;;14.90;99.74
67099;BME280;54288;53.046;5.668;2022-09-09T01:54:07;100836.06;;;14.85;100.00
67099;BME280;54288;53.046;5.668;2022-09-09T01:56:45;100836.66;;;14.93;100.00
67099;BME280;54288;53.046;5.668;2022-09-09T01:59:36;100843.50;;;14.97;100.00
67099;BME280;54288;53.046;5.668;2022-09-09T02:04:48;100849.47;;;15.02;100.00
67099;BME280;54288;53.046;5.668;2022-09-09T02:07:42;100853.78;;;15.04;100.00
67099;BME280;54288;53.046;5.668;2022-09-09T02:13:21;100845.88;;;15.04;99.75
67099;BME280;54288;53.046;5.668;2022-09-09T02:16:05;100852.84;;;15.05;99.93
67099;BME280;54288;53.046;5.668;2022-09-09T02:18:38;100842.50;;;15.01;100.00
67099;BME280;54288;53.046;5.668;2022-09-09T02:21:08;100848.44;;;15.06;100.00
67099;BME280;54288;53.046;5.668;2022-09-09T02:23:40;100848.50;;;15.04;99.92
67099;BME280;54288;53.046;5.668;2022-09-09T02:26:13;100853.50;;;15.12;100.00
67099;BME280;54288;53.046;5.668;2022-09-09T02:28:48;100858.06;;;15.07;99.68
67099;BME280;54288;53.046;5.668;2022-09-09T02:31:19;100842.31;;;15.05;100.00
67099;BME280;54288;53.046;5.668;2022-09-09T02:33:54;100840.59;;;15.04;99.72
67099;BME280;54288;53.046;5.668;2022-09-09T02:36:25;100849.38;;;15.05;99.94
67099;BME280;54288;53.046;5.668;2022-09-09T02:38:52;100836.28;;;15.02;100.00
67099;BME280;54288;53.046;5.668;2022-09-09T02:41:37;100837.03;;;15.05;100.00
67099;BME280;54288;53.046;5.668;2022-09-09T02:44:15;100839.63;;;15.07;100.00
67099;BME280;54288;53.046;5.668;2022-09-09T02:55:24;100843.66;;;15.15;99.84
67099;BME280;54288;53.046;5.668;2022-09-09T02:57:58;100839.38;;;15.13;99.69
67099;BME280;54288;53.046;5.668;2022-09-09T03:00:28;100848.91;;;15.17;100.00
67099;BME280;54288;53.046;5.668;2022-09-09T03:02:58;100848.06;;;15.15;99.96
67099;BME280;54288;53.046;5.668;2022-09-09T03:05:25;100849.81;;;15.16;100.00
67099;BME280;54288;53.046;5.668;2022-09-09T05:13:07;100841.50;;;14.34;100.00
67099;BME280;54288;53.046;5.668;2022-09-09T05:15:33;100842.34;;;14.35;100.00
67099;BME280;54288;53.046;5.668;2022-09-09T05:18:02;100845.81;;;14.37;100.00
67099;BME280;54288;53.046;5.668;2022-09-09T05:20:30;100842.34;;;14.35;100.00
67099;BME280;54288;53.046;5.668;2022-09-09T05:22:57;100838.59;;;14.42;100.00
67099;BME280;54288;53.046;5.668;2022-09-09T05:25:26;100845.53;;;14.44;100.00
67099;BME280;54288;53.046;5.668;2022-09-09T05:27:53;100849.97;;;14.42;100.00
67099;BME280;54288;53.046;5.668;2022-09-09T05:30:20;100834.22;;;14.41;100.00
67099;BME280;54288;53.046;5.668;2022-09-09T05:32:47;100845.66;;;14.40;100.00
67099;BME280;54288;53.046;5.668;2022-09-09T05:35:14;100839.66;;;14.36;100.00
67099;BME280;54288;53.046;5.668;2022-09-09T05:37:41;100842.25;;;14.38;100.00
67099;BME280;54288;53.046;5.668;2022-09-09T05:40:07;100847.34;;;14.42;100.00
67099;BME280;54288;53.046;5.668;2022-09-09T05:42:32;100842.13;;;14.41;100.00
67099;BME280;54288;53.046;5.668;2022-09-09T05:44:59;100840.31;;;14.43;100.00
67099;BME280;54288;53.046;5.668;2022-09-09T05:47:25;100834.91;;;14.46;100.00
67099;BME280;54288;53.046;5.668;2022-09-09T05:49:54;100830.38;;;14.49;99.79
67099;BME280;54288;53.046;5.668;2022-09-09T05:52:21;100835.50;;;14.54;99.54
67099;BME280;54288;53.046;5.668;2022-09-09T05:54:46;100836.41;;;14.53;99.71
67099;BME280;54288;53.046;5.668;2022-09-09T05:57:12;100836.25;;;14.57;99.39
67099;BME280;54288;53.046;5.668;2022-09-09T05:59:38;100836.31;;;14.56;99.35
67099;BME280;54288;53.046;5.668;2022-09-09T06:02:04;100839.59;;;14.62;99.17
67099;BME280;54288;53.046;5.668;2022-09-09T06:04:34;100834.34;;;14.61;98.65
67099;BME280;54288;53.046;5.668;2022-09-09T06:07:01;100819.75;;;14.52;98.18
67099;BME280;54288;53.046;5.668;2022-09-09T06:09:27;100850.81;;;14.67;98.42
67099;BME280;54288;53.046;5.668;2022-09-09T06:11:52;100849.94;;;14.67;98.33
67099;BME280;54288;53.046;5.668;2022-09-09T06:14:21;100838.63;;;14.65;98.25
67099;BME280;54288;53.046;5.668;2022-09-09T06:16:48;100853.38;;;14.69;98.11
67099;BME280;54288;53.046;5.668;2022-09-09T06:19:21;100847.09;;;14.73;98.37
67099;BME280;54288;53.046;5.668;2022-09-09T06:21:47;100849.72;;;14.73;97.82
67099;BME280;54288;53.046;5.668;2022-09-09T06:24:13;100837.69;;;14.66;97.66
67099;BME280;54288;53.046;5.668;2022-09-09T06:26:43;100850.59;;;14.73;97.43
67099;BME280;54288;53.046;5.668;2022-09-09T06:29:16;100834.00;;;14.70;97.64
67099;BME280;54288;53.046;5.668;2022-09-09T06:31:42;100841.06;;;14.69;97.12
67099;BME280;54288;53.046;5.668;2022-09-09T06:34:17;100844.44;;;14.73;96.51
67099;BME280;54288;53.046;5.668;2022-09-09T06:36:48;100848.94;;;14.71;96.46
67099;BME280;54288;53.046;5.668;2022-09-09T06:39:14;100844.34;;;14.76;96.67
67099;BME280;54288;53.046;5.668;2022-09-09T06:41:41;100852.69;;;14.87;96.17
67099;BME280;54288;53.046;5.668;2022-09-09T06:44:14;100842.31;;;14.82;95.60
67099;BME280;54288;53.046;5.668;2022-09-09T06:46:41;100852.81;;;14.84;95.76
67099;BME280;54288;53.046;5.668;2022-09-09T06:49:08;100848.50;;;14.81;96.14
67099;BME280;54288;53.046;5.668;2022-09-09T06:51:36;100847.34;;;14.88;96.08
67099;BME280;54288;53.046;5.668;2022-09-09T06:54:08;100846.09;;;14.98;95.25
67099;BME280;54288;53.046;5.668;2022-09-09T06:56:36;100843.47;;;15.20;95.10
67099;BME280;54288;53.046;5.668;2022-09-09T06:59:08;100822.34;;;15.43;93.29
67099;BME280;54288;53.046;5.668;2022-09-09T07:01:40;100830.34;;;15.63;91.88
67099;BME280;54288;53.046;5.668;2022-09-09T07:04:10;100839.97;;;15.64;93.07
67099;BME280;54288;53.046;5.668;2022-09-09T07:06:42;100840.25;;;15.78;92.23
67099;BME280;54288;53.046;5.668;2022-09-09T07:09:12;100825.22;;;16.40;89.77
67099;BME280;54288;53.046;5.668;2022-09-09T07:11:43;100830.28;;;16.64;86.27
67099;BME280;54288;53.046;5.668;2022-09-09T07:14:10;100830.59;;;16.77;87.34
67099;BME280;54288;53.046;5.668;2022-09-09T07:16:43;100825.06;;;16.81;86.82
67099;BME280;54288;53.046;5.668;2022-09-09T07:19:10;100840.03;;;17.01;85.46
67099;BME280;54288;53.046;5.668;2022-09-09T07:21:37;100827.38;;;17.07;85.04
67099;BME280;54288;53.046;5.668;2022-09-09T07:24:04;100831.16;;;17.20;85.31
67099;BME280;54288;53.046;5.668;2022-09-09T07:26:33;100836.09;;;17.09;84.10
67099;BME280;54288;53.046;5.668;2022-09-09T07:29:00;100835.63;;;17.37;84.02
67099;BME280;54288;53.046;5.668;2022-09-09T07:31:31;100845.22;;;17.58;83.98
67099;BME280;54288;53.046;5.668;2022-09-09T07:33:59;100837.63;;;17.50;82.79
67099;BME280;54288;53.046;5.668;2022-09-09T07:36:39;100833.28;;;17.31;84.29
67099;BME280;54288;53.046;5.668;2022-09-09T07:39:10;100826.28;;;17.11;84.16
67099;BME280;54288;53.046;5.668;2022-09-09T07:41:38;100829.75;;;17.84;84.49
67099;BME280;54288;53.046;5.668;2022-09-09T07:44:15;100828.91;;;18.18;81.15
67099;BME280;54288;53.046;5.668;2022-09-09T07:46:45;100834.34;;;18.49;79.70
67099;BME280;54288;53.046;5.668;2022-09-09T07:49:14;100850.94;;;18.01;81.08
67099;BME280;54288;53.046;5.668;2022-09-09T07:51:43;100845.50;;;17.87;82.00
67099;BME280;54288;53.046;5.668;2022-09-09T07:54:14;100840.66;;;17.95;82.00
67099;BME280;54288;53.046;5.668;2022-09-09T07:56:43;100845.34;;;17.90;81.70
67099;BME280;54288;53.046;5.668;2022-09-09T07:59:10;100847.13;;;17.73;81.79
67099;BME280;54288;53.046;5.668;2022-09-09T08:01:43;100848.56;;;17.61;82.79
67099;BME280;54288;53.046;5.668;2022-09-09T08:04:16;100843.59;;;17.72;83.54
67099;BME280;54288;53.046;5.668;2022-09-09T08:06:48;100849.47;;;18.30;81.38
67099;BME280;54288;53.046;5.668;2022-09-09T08:09:16;100832.56;;;18.15;79.48
67099;BME280;54288;53.046;5.668;2022-09-09T08:11:44;100832.78;;;17.77;81.90
67099;BME280;54288;53.046;5.668;2022-09-09T08:14:11;100859.59;;;18.05;81.43
67099;BME280;54288;53.046;5.668;2022-09-09T08:16:41;100845.88;;;18.31;80.34
67099;BME280;54288;53.046;5.668;2022-09-09T08:19:08;100848.22;;;18.03;80.54
67099;BME280;54288;53.046;5.668;2022-09-09T08:21:37;100850.81;;;17.87;81.95
67099;BME280;54288;53.046;5.668;2022-09-09T08:24:04;100857.19;;;18.00;81.29
67099;BME280;54288;53.046;5.668;2022-09-09T08:26:39;100858.44;;;17.93;81.74
67099;BME280;54288;53.046;5.668;2022-09-09T08:29:07;100854.09;;;17.92;83.21
67099;BME280;54288;53.046;5.668;2022-09-09T08:31:35;100861.16;;;17.92;82.09
67099;BME280;54288;53.046;5.668;2022-09-09T08:34:05;100849.00;;;17.88;82.60
67099;BME280;54288;53.046;5.668;2022-09-09T08:36:38;100859.28;;;17.94;82.11
67099;BME280;54288;53.046;5.668;2022-09-09T08:39:06;100856.25;;;18.18;81.79
67099;BME280;54288;53.046;5.668;2022-09-09T08:48:19;100872.94;;;17.86;81.61
67099;BME280;54288;53.046;5.668;2022-09-09T08:50:51;100868.56;;;18.02;81.94
67099;BME280;54288;53.046;5.668;2022-09-09T08:53:27;100868.66;;;18.18;79.97
67099;BME280;54288;53.046;5.668;2022-09-09T08:56:01;100868.13;;;18.45;78.95
67099;BME280;54288;53.046;5.668;2022-09-09T08:58:50;100872.97;;;18.37;79.80
67099;BME280;54288;53.046;5.668;2022-09-09T09:07:16;100863.72;;;18.61;79.35
67099;BME280;54288;53.046;5.668;2022-09-09T09:10:00;100865.59;;;18.59;78.60
67099;BME280;54288;53.046;5.668;2022-09-09T09:12:38;100872.84;;;18.56;78.74
67099;BME280;54288;53.046;5.668;2022-09-09T09:15:28;100868.13;;;18.78;77.86
67099;BME280;54288;53.046;5.668;2022-09-09T09:17:56;100868.09;;;19.10;76.81
67099;BME280;54288;53.046;5.668;2022-09-09T09:21:16;100878.00;;;18.91;77.35
67099;BME280;54288;53.046;5.668;2022-09-09T09:24:00;100875.06;;;18.80;76.55
67099;BME280;54288;53.046;5.668;2022-09-09T09:26:34;100874.28;;;18.63;77.31
67099;BME280;54288;53.046;5.668;2022-09-09T09:29:11;100885.81;;;19.27;75.26
67099;BME280;54288;53.046;5.668;2022-09-09T09:31:38;100875.97;;;19.12;76.29
67099;BME280;54288;53.046;5.668;2022-09-09T09:34:04;100883.66;;;19.49;75.32
67099;BME280;54288;53.046;5.668;2022-09-09T09:36:43;100876.97;;;19.73;73.77
67099;BME280;54288;53.046;5.668;2022-09-09T09:39:28;100895.81;;;19.22;73.80
67099;BME280;54288;53.046;5.668;2022-09-09T09:41:57;100886.56;;;18.81;75.73
67099;BME280;54288;53.046;5.668;2022-09-09T09:44:30;100901.53;;;18.82;75.26
67099;BME280;54288;53.046;5.668;2022-09-09T09:47:08;100887.38;;;18.49;76.51
67099;BME280;54288;53.046;5.668;2022-09-09T09:49:35;100904.34;;;18.79;76.37
67099;BME280;54288;53.046;5.668;2022-09-09T09:52:02;100889.72;;;18.87;75.55
67099;BME280;54288;53.046;5.668;2022-09-09T09:54:41;100886.06;;;19.22;73.44
67099;BME280;54288;53.046;5.668;2022-09-09T09:57:09;100905.41;;;18.92;72.45
67099;BME280;54288;53.046;5.668;2022-09-09T09:59:37;100903.56;;;18.77;74.14
67099;BME280;54288;53.046;5.668;2022-09-09T10:04:44;100887.00;;;19.04;74.67
67099;BME280;54288;53.046;5.668;2022-09-09T10:07:21;100893.22;;;19.20;73.23
67099;BME280;54288;53.046;5.668;2022-09-09T10:09:56;100874.94;;;18.99;72.87
67099;BME280;54288;53.046;5.668;2022-09-09T10:12:33;100900.00;;;18.93;74.10
67099;BME280;54288;53.046;5.668;2022-09-09T10:17:54;100902.34;;;18.67;75.13
67099;BME280;54288;53.046;5.668;2022-09-09T10:23:41;100898.94;;;18.80;76.79
67099;BME280;54288;53.046;5.668;2022-09-09T10:31:49;100895.22;;;18.84;76.25
67099;BME280;54288;53.046;5.668;2022-09-09T10:40:01;100891.03;;;19.44;73.66
67099;BME280;54288;53.046;5.668;2022-09-09T10:42:31;100891.63;;;19.33;73.98
67099;BME280;54288;53.046;5.668;2022-09-09T10:45:00;100898.06;;;18.97;74.85
67099;BME280;54288;53.046;5.668;2022-09-09T10:50:22;100887.22;;;18.69;75.23
67099;BME280;54288;53.046;5.668;2022-09-09T10:53:08;100886.13;;;18.39;76.32
67099;BME280;54288;53.046;5.668;2022-09-09T10:55:42;100900.16;;;18.24;77.75
67099;BME280;54288;53.046;5.668;2022-09-09T10:58:19;100907.72;;;18.14;79.46
67099;BME280;54288;53.046;5.668;2022-09-09T11:00:55;100903.97;;;18.18;79.06
67099;BME280;54288;53.046;5.668;2022-09-09T11:03:28;100899.63;;;18.51;79.91
67099;BME280;54288;53.046;5.668;2022-09-09T11:06:06;100886.53;;;18.65;77.07
67099;BME280;54288;53.046;5.668;2022-09-09T11:08:38;100892.84;;;18.95;76.87
67099;BME280;54288;53.046;5.668;2022-09-09T11:11:14;100889.66;;;19.04;75.35
67099;BME280;54288;53.046;5.668;2022-09-09T11:16:33;100891.03;;;19.28;73.59
67099;BME280;54288;53.046;5.668;2022-09-09T11:19:26;100876.66;;;19.15;73.00
67099;BME280;54288;53.046;5.668;2022-09-09T11:21:50;100883.59;;;19.18;73.44
67099;BME280;54288;53.046;5.668;2022-09-09T11:24:22;100888.38;;;19.44;72.69
67099;BME280;54288;53.046;5.668;2022-09-09T11:27:06;100890.69;;;19.65;71.39
67099;BME280;54288;53.046;5.668;2022-09-09T11:37:39;100894.97;;;19.52;71.30
67099;BME280;54288;53.046;5.668;2022-09-09T11:42:42;100889.94;;;19.00;72.94
67099;BME280;54288;53.046;5.668;2022-09-09T11:45:26;100892.91;;;18.94;74.16
67099;BME280;54288;53.046;5.668;2022-09-09T11:47:57;100884.19;;;18.92;73.52
67099;BME280;54288;53.046;5.668;2022-09-09T11:52:49;100904.00;;;18.52;75.18
67099;BME280;54288;53.046;5.668;2022-09-09T11:55:30;100903.47;;;18.46;76.59
67099;BME280;54288;53.046;5.668;2022-09-09T11:58:04;100890.97;;;18.48;76.15
67099;BME280;54288;53.046;5.668;2022-09-09T12:00:37;100890.66;;;18.86;75.03
67099;BME280;54288;53.046;5.668;2022-09-09T12:03:34;100863.22;;;19.03;74.46
67099;BME280;54288;53.046;5.668;2022-09-09T12:06:11;100883.50;;;19.21;72.77
67099;BME280;54288;53.046;5.668;2022-09-09T12:08:44;100875.09;;;19.44;73.28
67099;BME280;54288;53.046;5.668;2022-09-09T12:11:11;100883.06;;;19.28;73.33
67099;BME280;54288;53.046;5.668;2022-09-09T12:13:37;100865.56;;;19.09;74.60
67099;BME280;54288;53.046;5.668;2022-09-09T12:16:03;100886.91;;;19.38;74.18
67099;BME280;54288;53.046;5.668;2022-09-09T12:18:40;100888.09;;;19.64;73.21
67099;BME280;54288;53.046;5.668;2022-09-09T12:23:55;100895.81;;;19.53;72.86
67099;BME280;54288;53.046;5.668;2022-09-09T12:26:34;100886.16;;;19.21;72.92
67099;BME280;54288;53.046;5.668;2022-09-09T12:32:00;100881.41;;;19.88;72.86
67099;BME280;54288;53.046;5.668;2022-09-09T12:34:38;100881.41;;;19.72;71.62
67099;BME280;54288;53.046;5.668;2022-09-09T12:40:03;100869.69;;;19.61;71.31
67099;BME280;54288;53.046;5.668;2022-09-09T12:42:30;100864.66;;;19.56;71.47
67099;BME280;54288;53.046;5.668;2022-09-09T12:45:03;100861.75;;;19.45;72.11
67099;BME280;54288;53.046;5.668;2022-09-09T12:47:49;100858.00;;;19.17;73.28
67099;BME280;54288;53.046;5.668;2022-09-09T12:50:26;100855.50;;;18.98;75.34
67099;BME280;54288;53.046;5.668;2022-09-09T12:52:56;100856.69;;;18.93;75.30
67099;BME280;54288;53.046;5.668;2022-09-09T12:55:28;100849.16;;;18.85;75.07
67099;BME280;54288;53.046;5.668;2022-09-09T12:57:57;100856.22;;;18.69;75.51
67099;BME280;54288;53.046;5.668;2022-09-09T13:00:25;100862.03;;;18.60;76.00
67099;BME280;54288;53.046;5.668;2022-09-09T13:02:57;100858.81;;;18.54;77.53
67099;BME280;54288;53.046;5.668;2022-09-09T13:05:43;100866.59;;;18.74;76.75
67099;BME280;54288;53.046;5.668;2022-09-09T13:08:11;100853.50;;;18.86;76.25
67099;BME280;54288;53.046;5.668;2022-09-09T13:10:53;100853.97;;;19.10;76.36
67099;BME280;54288;53.046;5.668;2022-09-09T13:13:28;100839.78;;;19.26;76.05
67099;BME280;54288;53.046;5.668;2022-09-09T13:15:59;100861.72;;;19.30;75.39
67099;BME280;54288;53.046;5.668;2022-09-09T13:18:32;100851.34;;;19.41;74.12
67099;BME280;54288;53.046;5.668;2022-09-09T13:20:59;100852.50;;;19.82;73.05
67099;BME280;54288;53.046;5.668;2022-09-09T13:23:30;100837.72;;;19.92;71.59
67099;BME280;54288;53.046;5.668;2022-09-09T13:26:24;100838.06;;;19.72;72.67
67099;BME280;54288;53.046;5.668;2022-09-09T13:28:52;100840.88;;;20.14;72.51
67099;BME280;54288;53.046;5.668;2022-09-09T13:31:32;100844.34;;;20.44;71.42
67099;BME280;54288;53.046;5.668;2022-09-09T13:33:58;100835.75;;;19.95;72.99
67099;BME280;54288;53.046;5.668;2022-09-09T13:36:34;100820.81;;;19.93;73.64
67099;BME280;54288;53.046;5.668;2022-09-09T13:39:02;100837.56;;;19.95;73.08
67099;BME280;54288;53.046;5.668;2022-09-09T13:41:33;100826.84;;;19.96;72.57
67099;BME280;54288;53.046;5.668;2022-09-09T13:44:01;100835.44;;;19.86;73.27
67099;BME280;54288;53.046;5.668;2022-09-09T13:49:19;100832.25;;;19.95;72.23
67099;BME280;54288;53.046;5.668;2022-09-09T13:51:47;100825.78;;;20.14;70.14
67099;BME280;54288;53.046;5.668;2022-09-09T13:54:19;100828.31;;;20.16;70.13
67099;BME280;54288;53.046;5.668;2022-09-09T13:56:47;100818.19;;;20.22;69.56
67099;BME280;54288;53.046;5.668;2022-09-09T13:59:18;100815.44;;;20.38;70.01
67099;BME280;54288;53.046;5.668;2022-09-09T14:01:46;100809.66;;;20.45;69.54
67099;BME280;54288;53.046;5.668;2022-09-09T14:04:11;100815.19;;;20.42;69.25
67099;BME280;54288;53.046;5.668;2022-09-09T14:06:39;100816.22;;;19.96;69.29
67099;BME280;54288;53.046;5.668;2022-09-09T14:09:07;100827.00;;;19.93;70.18
67099;BME280;54288;53.046;5.668;2022-09-09T14:11:33;100821.56;;;19.81;70.48
67099;BME280;54288;53.046;5.668;2022-09-09T14:13:59;100828.69;;;19.80;71.49
67099;BME280;54288;53.046;5.668;2022-09-09T14:16:26;100820.31;;;19.57;72.10
67099;BME280;54288;53.046;5.668;2022-09-09T14:18:53;100834.47;;;19.42;73.56
67099;BME280;54288;53.046;5.668;2022-09-09T14:21:19;100838.59;;;19.32;73.20
67099;BME280;54288;53.046;5.668;2022-09-09T14:23:45;100849.22;;;19.32;73.38
67099;BME280;54288;53.046;5.668;2022-09-09T14:26:11;100844.13;;;19.12;74.69
67099;BME280;54288;53.046;5.668;2022-09-09T14:28:36;100856.00;;;18.89;76.79
67099;BME280;54288;53.046;5.668;2022-09-09T14:31:03;100843.00;;;18.52;80.83
67099;BME280;54288;53.046;5.668;2022-09-09T14:33:29;100836.69;;;18.21;81.09
67099;BME280;54288;53.046;5.668;2022-09-09T14:36:00;100850.94;;;18.01;81.45
67099;BME280;54288;53.046;5.668;2022-09-09T14:38:30;100843.94;;;18.17;83.05
67099;BME280;54288;53.046;5.668;2022-09-09T14:40:56;100834.66;;;18.26;82.48
67099;BME280;54288;53.046;5.668;2022-09-09T14:43:24;100833.53;;;18.31;81.83
67099;BME280;54288;53.046;5.668;2022-09-09T14:45:51;100847.63;;;18.32;83.09
67099;BME280;54288;53.046;5.668;2022-09-09T14:48:17;100836.00;;;18.34;82.34
67099;BME280;54288;53.046;5.668;2022-09-09T14:50:43;100838.06;;;18.28;82.18
67099;BME280;54288;53.046;5.668;2022-09-09T14:53:09;100837.06;;;18.30;82.14
67099;BME280;54288;53.046;5.668;2022-09-09T14:55:36;100843.38;;;18.28;83.35
67099;BME280;54288;53.046;5.668;2022-09-09T14:58:03;100831.75;;;18.30;83.46
67099;BME280;54288;53.046;5.668;2022-09-09T15:00:29;100836.53;;;18.24;83.13
67099;BME280;54288;53.046;5.668;2022-09-09T15:02:55;100831.38;;;18.04;83.86
67099;BME280;54288;53.046;5.668;2022-09-09T15:05:22;100832.31;;;18.03;84.44
67099;BME280;54288;53.046;5.668;2022-09-09T15:07:50;100830.94;;;17.96;85.35
67099;BME280;54288;53.046;5.668;2022-09-09T15:10:18;100830.44;;;18.22;86.13
67099;BME280;54288;53.046;5.668;2022-09-09T15:12:44;100826.72;;;18.43;85.10
67099;BME280;54288;53.046;5.668;2022-09-09T15:15:12;100825.75;;;18.44;82.78
67099;BME280;54288;53.046;5.668;2022-09-09T15:17:38;100833.00;;;18.57;84.84
67099;BME280;54288;53.046;5.668;2022-09-09T15:20:04;100829.19;;;18.63;85.09
67099;BME280;54288;53.046;5.668;2022-09-09T15:22:31;100831.97;;;18.60;84.91
67099;BME280;54288;53.046;5.668;2022-09-09T15:24:57;100820.69;;;18.72;85.19
67099;BME280;54288;53.046;5.668;2022-09-09T15:27:23;100820.78;;;18.70;83.68
67099;BME280;54288;53.046;5.668;2022-09-09T15:29:49;100826.88;;;18.72;84.22
67099;BME280;54288;53.046;5.668;2022-09-09T15:32:16;100824.22;;;18.72;83.17
67099;BME280;54288;53.046;5.668;2022-09-09T15:34:42;100816.41;;;18.69;83.65
67099;BME280;54288;53.046;5.668;2022-09-09T15:37:10;100829.72;;;18.52;84.13
67099;BME280;54288;53.046;5.668;2022-09-09T15:39:39;100834.22;;;18.35;85.64
67099;BME280;54288;53.046;5.668;2022-09-09T15:42:05;100845.25;;;18.26;85.50
67099;BME280;54288;53.046;5.668;2022-09-09T15:44:39;100830.94;;;18.13;86.31
67099;BME280;54288;53.046;5.668;2022-09-09T15:47:05;100837.69;;;18.01;87.11
67099;BME280;54288;53.046;5.668;2022-09-09T15:49:30;100856.03;;;17.89;89.44
67099;BME280;54288;53.046;5.668;2022-09-09T15:51:59;100858.63;;;17.55;88.52
67099;BME280;54288;53.046;5.668;2022-09-09T15:54:31;100839.03;;;17.22;94.02
67099;BME280;54288;53.046;5.668;2022-09-09T15:57:00;100853.19;;;17.02;93.59
67099;BME280;54288;53.046;5.668;2022-09-09T15:59:29;100849.19;;;16.94;92.29
67099;BME280;54288;53.046;5.668;2022-09-09T16:01:55;100842.91;;;16.96;93.21
67099;BME280;54288;53.046;5.668;2022-09-09T16:04:23;100841.91;;;16.99;95.07
67099;BME280;54288;53.046;5.668;2022-09-09T16:06:54;100832.44;;;16.93;92.73
67099;BME280;54288;53.046;5.668;2022-09-09T16:09:20;100842.75;;;17.18;91.39
67099;BME280;54288;53.046;5.668;2022-09-09T16:11:46;100834.16;;;17.31;92.64
67099;BME280;54288;53.046;5.668;2022-09-09T16:14:14;100838.16;;;17.40;92.82
67099;BME280;54288;53.046;5.668;2022-09-09T16:16:44;100841.47;;;17.45;93.58
67099;BME280;54288;53.046;5.668;2022-09-09T16:19:14;100842.94;;;17.50;93.07
67099;BME280;54288;53.046;5.668;2022-09-09T16:21:46;100837.75;;;17.49;92.97
67099;BME280;54288;53.046;5.668;2022-09-09T16:24:18;100843.75;;;17.52;94.50
67099;BME280;54288;53.046;5.668;2022-09-09T16:26:46;100843.25;;;17.44;94.50
67099;BME280;54288;53.046;5.668;2022-09-09T16:29:14;100840.88;;;17.38;92.98
67099;BME280;54288;53.046;5.668;2022-09-09T16:31:40;100834.44;;;17.25;93.74
67099;BME280;54288;53.046;5.668;2022-09-09T16:34:08;100848.75;;;17.21;92.83
67099;BME280;54288;53.046;5.668;2022-09-09T16:36:37;100843.16;;;17.09;92.30
67099;BME280;54288;53.046;5.668;2022-09-09T16:39:16;100842.44;;;17.05;93.16
67099;BME280;54288;53.046;5.668;2022-09-09T16:41:43;100841.38;;;16.91;93.00
67099;BME280;54288;53.046;5.668;2022-09-09T16:44:12;100852.59;;;16.96;93.64
67099;BME280;54288;53.046;5.668;2022-09-09T16:46:41;100836.59;;;16.99;93.49
67099;BME280;54288;53.046;5.668;2022-09-09T16:49:12;100839.19;;;17.00;92.99
67099;BME280;54288;53.046;5.668;2022-09-09T16:51:45;100830.44;;;16.98;92.81
67099;BME280;54288;53.046;5.668;2022-09-09T16:54:13;100840.31;;;16.95;93.89
67099;BME280;54288;53.046;5.668;2022-09-09T16:56:42;100847.47;;;16.93;93.64
67099;BME280;54288;53.046;5.668;2022-09-09T16:59:12;100838.44;;;16.97;94.22
67099;BME280;54288;53.046;5.668;2022-09-09T17:01:41;100847.19;;;16.99;93.79
67099;BME280;54288;53.046;5.668;2022-09-09T17:04:09;100845.31;;;17.01;93.51
67099;BME280;54288;53.046;5.668;2022-09-09T17:06:36;100849.84;;;16.99;93.80
67099;BME280;54288;53.046;5.668;2022-09-09T17:09:06;100858.78;;;16.96;92.56
67099;BME280;54288;53.046;5.668;2022-09-09T17:11:34;100857.31;;;17.08;94.03
67099;BME280;54288;53.046;5.668;2022-09-09T17:13:59;100858.47;;;17.02;93.87
67099;BME280;54288;53.046;5.668;2022-09-09T17:16:28;100856.91;;;16.98;93.65
67099;BME280;54288;53.046;5.668;2022-09-09T17:18:56;100865.47;;;17.03;94.57
67099;BME280;54288;53.046;5.668;2022-09-09T17:21:25;100856.06;;;16.98;94.44